Time;durP1;ratioP1;P1;durP2;ratioP2;P2;SDS_P1;SDS_P2;PMS_P1;PMS_P2;Temp;Humidity;BMP_temperature;BMP_pressure;BME280_temperature;BME280_humidity;BME280_pressure;Samples;Min_cycle;Max_cycle;Signal;HPM_P1;HPM_P2
2021/04/02 00:01:49;;;;;;;;;18.00;18.00;;;;;;;;5054640;28;12238;-80
2021/04/02 00:04:15;;;;;;;;;16.75;13.25;;;;;;;;5067358;28;12115;-81
2021/04/02 00:06:43;;;;;;;;;18.00;16.50;;;;;;;;5063012;28;11520;-81
2021/04/02 00:09:11;;;;;;;;;15.25;15.25;;;;;;;;5079579;28;11286;-83
2021/04/02 00:11:38;;;;;;;;;23.75;17.50;;;;;;;;5074571;28;11200;-80
2021/04/02 00:14:05;;;;;;;;;21.00;18.50;;;;;;;;5068154;28;11618;-82
2021/04/02 00:16:32;;;;;;;;;9.25;7.00;;;;;;;;5066762;28;11626;-83
2021/04/02 00:18:59;;;;;;;;;21.50;18.00;;;;;;;;5077875;28;11474;-82
2021/04/02 00:21:26;;;;;;;;;18.50;14.50;;;;;;;;5069821;28;11454;-82
2021/04/02 00:23:53;;;;;;;;;16.75;16.75;;;;;;;;5069755;28;12593;-82
2021/04/02 00:26:23;;;;;;;;;21.75;16.50;;;;;;;;5072974;28;12226;-82
2021/04/02 00:28:51;;;;;;;;;17.25;16.00;;;;;;;;5069116;28;11500;-82
2021/04/02 00:31:18;;;;;;;;;18.00;17.50;;;;;;;;5067907;28;11414;-81
2021/04/02 00:33:45;;;;;;;;;19.00;16.50;;;;;;;;5081163;28;11535;-80
2021/04/02 00:36:12;;;;;;;;;18.25;15.00;;;;;;;;5071356;28;11499;-81
2021/04/02 00:38:39;;;;;;;;;17.25;15.00;;;;;;;;5075297;28;11476;-81
2021/04/02 00:41:09;;;;;;;;;17.50;16.00;;;;;;;;5075425;28;11556;-81
2021/04/02 00:43:38;;;;;;;;;22.50;16.75;;;;;;;;5080125;28;11489;-82
2021/04/02 00:46:09;;;;;;;;;15.00;15.00;;;;;;;;5061435;28;11477;-82
2021/04/02 00:48:37;;;;;;;;;23.00;19.50;;;;;;;;5082208;28;11634;-81
2021/04/02 00:51:07;;;;;;;;;17.50;17.00;;;;;;;;5078605;28;11493;-83
2021/04/02 00:53:38;;;;;;;;;19.75;15.75;;;;;;;;5069827;28;11521;-81
2021/04/02 00:56:12;;;;;;;;;20.00;19.50;;;;;;;;5069051;28;11498;-81
2021/04/02 00:58:39;;;;;;;;;22.00;18.25;;;;;;;;5070533;28;11600;-81
2021/04/02 01:01:08;;;;;;;;;15.00;15.00;;;;;;;;5072810;28;11456;-81
2021/04/02 01:03:35;;;;;;;;;20.00;16.50;;;;;;;;5073894;28;11456;-81
2021/04/02 01:06:04;;;;;;;;;20.25;18.75;;;;;;;;5066435;28;11581;-82
2021/04/02 01:08:35;;;;;;;;;23.50;20.25;;;;;;;;5071937;28;11474;-82
2021/04/02 01:11:04;;;;;;;;;23.25;21.75;;;;;;;;5069865;28;11527;-82
2021/04/02 01:13:37;;;;;;;;;22.00;22.00;;;;;;;;5074964;28;11483;-81
2021/04/02 01:16:09;;;;;;;;;15.50;14.75;;;;;;;;5070165;28;11509;-81
2021/04/02 01:18:38;;;;;;;;;19.25;17.25;;;;;;;;5046263;28;11572;-81
2021/04/02 01:21:11;;;;;;;;;19.25;19.25;;;;;;;;5069709;28;11509;-81
2021/04/02 01:23:44;;;;;;;;;23.25;20.75;;;;;;;;5061982;28;12313;-80
2021/04/02 01:26:19;;;;;;;;;21.00;19.25;;;;;;;;5076731;28;11475;-81
2021/04/02 01:29:11;;;;;;;;;27.50;20.00;;;;;;;;5083661;28;11477;-80
2021/04/02 01:31:39;;;;;;;;;23.00;20.25;;;;;;;;5072143;28;12346;-82
2021/04/02 01:34:08;;;;;;;;;23.25;19.00;;;;;;;;5065991;28;11547;-80
2021/04/02 01:36:37;;;;;;;;;22.50;19.50;;;;;;;;5070645;28;11542;-80
2021/04/02 01:39:05;;;;;;;;;20.75;18.50;;;;;;;;5075296;28;11473;-81
2021/04/02 01:41:33;;;;;;;;;23.75;20.75;;;;;;;;5067116;28;11758;-81
2021/04/02 01:44:02;;;;;;;;;21.50;19.00;;;;;;;;5067842;28;11687;-80
2021/04/02 01:46:29;;;;;;;;;24.75;23.00;;;;;;;;5071422;28;11565;-81
2021/04/02 01:49:00;;;;;;;;;26.75;23.50;;;;;;;;5074664;28;11538;-81
2021/04/02 01:51:27;;;;;;;;;26.50;22.25;;;;;;;;5051403;28;11536;-80
2021/04/02 01:53:58;;;;;;;;;20.25;18.50;;;;;;;;5078018;28;11539;-81
2021/04/02 01:56:26;;;;;;;;;24.25;24.25;;;;;;;;5065372;28;11544;-81
2021/04/02 01:58:53;;;;;;;;;23.25;18.50;;;;;;;;5066640;28;11661;-80
2021/04/02 02:01:24;;;;;;;;;25.75;21.50;;;;;;;;5071126;27;11445;-81
2021/04/02 02:03:54;;;;;;;;;16.75;16.75;;;;;;;;5066009;28;11584;-80
2021/04/02 02:06:24;;;;;;;;;19.75;17.25;;;;;;;;5067859;28;11544;-83
2021/04/02 02:08:53;;;;;;;;;23.25;23.25;;;;;;;;5087477;28;11537;-80
2021/04/02 02:11:20;;;;;;;;;21.50;19.00;;;;;;;;5068996;28;11638;-79
2021/04/02 02:13:51;;;;;;;;;25.75;22.75;;;;;;;;5077096;28;12152;-80
2021/04/02 02:16:21;;;;;;;;;23.00;22.50;;;;;;;;5069088;28;12306;-80
2021/04/02 02:18:52;;;;;;;;;25.00;25.00;;;;;;;;5069718;28;12343;-81
2021/04/02 02:21:19;;;;;;;;;31.75;23.25;;;;;;;;5074484;28;11540;-81
2021/04/02 02:23:48;;;;;;;;;27.50;21.50;;;;;;;;5078567;28;11550;-81
2021/04/02 02:26:15;;;;;;;;;23.00;18.75;;;;;;;;5079585;28;11570;-81
2021/04/02 02:28:43;;;;;;;;;26.75;23.25;;;;;;;;5076653;28;11631;-81
2021/04/02 02:31:11;;;;;;;;;27.50;24.00;;;;;;;;5079098;27;11597;-81
2021/04/02 02:33:38;;;;;;;;;30.50;24.50;;;;;;;;5080671;28;11565;-81
2021/04/02 02:36:07;;;;;;;;;25.75;25.00;;;;;;;;5080406;28;11625;-82
2021/04/02 02:38:34;;;;;;;;;34.00;28.25;;;;;;;;5075770;28;11528;-81
2021/04/02 02:41:01;;;;;;;;;27.75;23.75;;;;;;;;5069923;28;11695;-82
2021/04/02 02:43:28;;;;;;;;;27.50;23.75;;;;;;;;5076556;28;11681;-81
2021/04/02 02:45:55;;;;;;;;;23.25;23.25;;;;;;;;5077360;28;11552;-82
2021/04/02 02:48:22;;;;;;;;;31.25;25.75;;;;;;;;5064779;28;11691;-82
2021/04/02 02:50:53;;;;;;;;;22.50;22.25;;;;;;;;5081916;28;11692;-83
2021/04/02 02:53:24;;;;;;;;;22.00;19.75;;;;;;;;5078137;28;11668;-84
2021/04/02 02:55:53;;;;;;;;;22.00;22.00;;;;;;;;5065650;28;11553;-83
2021/04/02 02:58:22;;;;;;;;;27.25;26.00;;;;;;;;5051820;28;11639;-82
2021/04/02 03:00:50;;;;;;;;;30.50;25.25;;;;;;;;5074848;27;11495;-83
2021/04/02 03:03:19;;;;;;;;;29.00;27.50;;;;;;;;5073031;28;11535;-82
2021/04/02 03:05:48;;;;;;;;;22.25;22.25;;;;;;;;5064561;28;12303;-82
2021/04/02 03:08:18;;;;;;;;;27.25;22.75;;;;;;;;5074231;28;11645;-82
2021/04/02 03:10:47;;;;;;;;;34.25;26.75;;;;;;;;5069952;28;11597;-83
2021/04/02 03:13:17;;;;;;;;;24.50;20.75;;;;;;;;5059490;28;11552;-81
2021/04/02 03:15:44;;;;;;;;;33.75;26.75;;;;;;;;5069697;28;11563;-82
2021/04/02 03:18:15;;;;;;;;;25.50;23.75;;;;;;;;5069425;28;11578;-82
2021/04/02 03:20:42;;;;;;;;;34.50;28.00;;;;;;;;5073244;28;11541;-83
2021/04/02 03:23:11;;;;;;;;;35.25;33.75;;;;;;;;5078120;28;11650;-82
2021/04/02 03:25:39;;;;;;;;;30.00;26.25;;;;;;;;5056109;28;11730;-81
2021/04/02 03:28:08;;;;;;;;;33.00;27.00;;;;;;;;5076301;28;11563;-83
2021/04/02 03:30:38;;;;;;;;;23.50;23.50;;;;;;;;5075098;27;11463;-82
2021/04/02 03:33:10;;;;;;;;;27.50;25.75;;;;;;;;5061704;28;12890;-84
2021/04/02 03:35:37;;;;;;;;;26.25;26.25;;;;;;;;5071625;28;11575;-81
2021/04/02 03:38:05;;;;;;;;;18.75;18.00;;;;;;;;5072711;28;11622;-83
2021/04/02 03:40:32;;;;;;;;;28.25;26.75;;;;;;;;5071926;28;11654;-83
2021/04/02 03:43:01;;;;;;;;;27.00;24.50;;;;;;;;5078618;28;11588;-82
2021/04/02 03:45:30;;;;;;;;;35.50;33.75;;;;;;;;5069617;28;12302;-86
2021/04/02 03:47:58;;;;;;;;;36.50;30.75;;;;;;;;5080041;28;11566;-83
2021/04/02 03:50:30;;;;;;;;;36.50;31.25;;;;;;;;5051672;28;11647;-82
2021/04/02 03:53:04;;;;;;;;;28.75;28.75;;;;;;;;5066768;28;11636;-80
2021/04/02 03:55:31;;;;;;;;;36.00;33.75;;;;;;;;5067690;28;11548;-82
2021/04/02 03:58:01;;;;;;;;;31.25;27.00;;;;;;;;5066933;28;12717;-81
2021/04/02 04:00:34;;;;;;;;;27.50;27.50;;;;;;;;5050089;27;11432;-82
2021/04/02 04:03:05;;;;;;;;;33.00;31.00;;;;;;;;5077776;28;11554;-81
2021/04/02 04:05:33;;;;;;;;;38.00;34.00;;;;;;;;5067569;28;11629;-84
2021/04/02 04:08:00;;;;;;;;;35.25;34.00;;;;;;;;5071645;28;11557;-84
2021/04/02 04:10:28;;;;;;;;;38.25;34.50;;;;;;;;5067529;28;11661;-83
2021/04/02 04:12:57;;;;;;;;;33.00;33.00;;;;;;;;5081744;28;11550;-84
2021/04/02 04:15:26;;;;;;;;;38.75;37.50;;;;;;;;5074378;28;11552;-84
2021/04/02 04:17:54;;;;;;;;;38.25;32.75;;;;;;;;5068107;28;11544;-84
2021/04/02 04:20:22;;;;;;;;;40.50;31.25;;;;;;;;5065552;28;11583;-83
2021/04/02 04:22:50;;;;;;;;;39.00;37.25;;;;;;;;5079947;28;11571;-86
2021/04/02 04:25:21;;;;;;;;;33.50;32.75;;;;;;;;5063292;28;11569;-83
2021/04/02 04:27:48;;;;;;;;;44.75;41.25;;;;;;;;5039988;28;11562;-84
2021/04/02 04:30:17;;;;;;;;;38.00;36.50;;;;;;;;5062554;27;11592;-82
2021/04/02 04:32:44;;;;;;;;;45.25;39.75;;;;;;;;5071942;28;11575;-81
2021/04/02 04:35:15;;;;;;;;;32.75;31.00;;;;;;;;5061124;28;11581;-81
2021/04/02 04:37:44;;;;;;;;;38.00;36.25;;;;;;;;5066823;28;11564;-80
2021/04/02 04:40:13;;;;;;;;;37.00;37.00;;;;;;;;5081346;28;11640;-82
2021/04/02 04:42:43;;;;;;;;;41.25;39.75;;;;;;;;5066450;28;11560;-81
2021/04/02 04:45:12;;;;;;;;;38.25;34.75;;;;;;;;5044671;28;11590;-82
2021/04/02 04:47:40;;;;;;;;;39.50;35.25;;;;;;;;5042481;28;12361;-81
2021/04/02 04:50:09;;;;;;;;;23.00;23.00;;;;;;;;5062068;28;12386;-81
2021/04/02 04:52:40;;;;;;;;;44.00;39.75;;;;;;;;5042811;28;11550;-81
2021/04/02 04:55:10;;;;;;;;;41.50;36.50;;;;;;;;5074844;28;12238;-78
2021/04/02 04:57:39;;;;;;;;;46.00;41.50;;;;;;;;5053359;28;11621;-80
2021/04/02 05:00:08;;;;;;;;;33.25;32.50;;;;;;;;5079683;27;11590;-80
2021/04/02 05:02:36;;;;;;;;;37.25;37.25;;;;;;;;5069383;28;11565;-81
2021/04/02 05:05:03;;;;;;;;;41.75;36.50;;;;;;;;5080691;28;11655;-80
2021/04/02 05:07:32;;;;;;;;;38.50;37.75;;;;;;;;5081418;28;12471;-80
2021/04/02 05:10:00;;;;;;;;;33.75;33.75;;;;;;;;5080170;28;11777;-81
2021/04/02 05:12:27;;;;;;;;;42.50;37.50;;;;;;;;5068687;28;11660;-79
2021/04/02 05:14:54;;;;;;;;;41.50;37.00;;;;;;;;5075854;28;11625;-78
2021/04/02 05:17:22;;;;;;;;;37.50;37.25;;;;;;;;5072880;28;12533;-80
2021/04/02 05:19:50;;;;;;;;;47.50;41.00;;;;;;;;5081615;28;11597;-79
2021/04/02 05:22:17;;;;;;;;;28.75;28.25;;;;;;;;5080126;28;11719;-85
2021/04/02 05:24:44;;;;;;;;;36.50;32.00;;;;;;;;5077002;28;12968;-79
2021/04/02 05:27:12;;;;;;;;;31.50;28.00;;;;;;;;5080226;28;11657;-78
2021/04/02 05:29:39;;;;;;;;;35.25;30.00;;;;;;;;5074281;28;11557;-81
2021/04/02 05:32:07;;;;;;;;;38.75;36.50;;;;;;;;5062568;28;11572;-86
2021/04/02 05:34:34;;;;;;;;;41.00;36.50;;;;;;;;5054020;28;11549;-82
2021/04/02 05:37:01;;;;;;;;;28.75;26.75;;;;;;;;5074534;28;11709;-83
2021/04/02 05:39:28;;;;;;;;;35.25;34.00;;;;;;;;5074119;28;11606;-84
2021/04/02 05:42:02;;;;;;;;;38.25;36.75;;;;;;;;5061968;28;12417;-82
2021/04/02 05:44:34;;;;;;;;;41.25;39.25;;;;;;;;5068434;28;11643;-79
2021/04/02 05:47:04;;;;;;;;;39.75;33.50;;;;;;;;5064657;28;11555;-76
2021/04/02 05:49:32;;;;;;;;;34.00;30.00;;;;;;;;5065731;28;11645;-73
2021/04/02 05:52:00;;;;;;;;;35.50;30.50;;;;;;;;5063201;28;11572;-75
2021/04/02 05:54:29;;;;;;;;;34.75;29.50;;;;;;;;5073430;28;11515;-74
2021/04/02 05:56:56;;;;;;;;;38.00;33.75;;;;;;;;5070949;28;11606;-74
2021/04/02 05:59:26;;;;;;;;;33.75;30.50;;;;;;;;5065156;28;11555;-75
2021/04/02 06:01:55;;;;;;;;;35.75;30.25;;;;;;;;5072880;28;11557;-73
2021/04/02 06:04:22;;;;;;;;;35.25;32.25;;;;;;;;5084610;28;11562;-73
2021/04/02 06:06:49;;;;;;;;;35.25;33.25;;;;;;;;5076662;28;11559;-73
2021/04/02 06:09:16;;;;;;;;;42.50;39.00;;;;;;;;5072985;28;12358;-72
2021/04/02 06:11:43;;;;;;;;;36.00;28.00;;;;;;;;5031495;28;11656;-72
2021/04/02 06:14:10;;;;;;;;;33.75;32.25;;;;;;;;5027103;28;11616;-73
2021/04/02 06:16:37;;;;;;;;;37.00;25.00;;;;;;;;5042832;28;11622;-76
2021/04/02 06:19:10;;;;;;;;;41.50;32.00;;;;;;;;5028380;28;11583;-71
2021/04/02 06:21:47;;;;;;;;;38.00;34.50;;;;;;;;5037230;28;11617;-71
2021/04/02 06:24:16;;;;;;;;;31.75;28.75;;;;;;;;5040704;28;12354;-73
2021/04/02 06:26:58;;;;;;;;;32.50;30.75;;;;;;;;5039365;28;11593;-70
2021/04/02 06:29:28;;;;;;;;;29.25;29.00;;;;;;;;5038882;28;11645;-72
2021/04/02 06:31:54;;;;;;;;;34.25;32.25;;;;;;;;5038390;28;11561;-72
2021/04/02 06:34:24;;;;;;;;;28.75;23.50;;;;;;;;5039027;28;12460;-73
2021/04/02 06:36:51;;;;;;;;;37.00;28.50;;;;;;;;5036678;28;11069;-74
2021/04/02 06:39:18;;;;;;;;;34.75;31.50;;;;;;;;5038454;28;11659;-71
2021/04/02 06:41:47;;;;;;;;;31.50;30.75;;;;;;;;5038201;28;11725;-69
2021/04/02 06:44:13;;;;;;;;;40.50;32.50;;;;;;;;5031664;28;11671;-72
2021/04/02 06:46:41;;;;;;;;;40.75;33.25;;;;;;;;5037938;28;11604;-72
2021/04/02 06:49:12;;;;;;;;;38.50;31.25;;;;;;;;5041899;28;11624;-72
2021/04/02 06:51:41;;;;;;;;;33.00;28.75;;;;;;;;5037130;28;11580;-73
2021/04/02 06:54:08;;;;;;;;;31.25;27.25;;;;;;;;5035247;28;11598;-73
2021/04/02 06:56:37;;;;;;;;;32.25;28.50;;;;;;;;5031338;28;11580;-72
2021/04/02 06:59:04;;;;;;;;;30.50;27.25;;;;;;;;5027308;28;11711;-72
2021/04/02 07:01:33;;;;;;;;;31.25;30.25;;;;;;;;5031684;28;12435;-70
2021/04/02 07:04:00;;;;;;;;;32.50;30.25;;;;;;;;5034559;28;12417;-72
2021/04/02 07:06:28;;;;;;;;;31.00;29.00;;;;;;;;5031069;28;11611;-74
2021/04/02 07:08:57;;;;;;;;;18.00;18.00;;;;;;;;5032068;28;11631;-74
2021/04/02 07:11:25;;;;;;;;;35.75;28.25;;;;;;;;5063109;28;11561;-76
2021/04/02 07:13:53;;;;;;;;;39.50;31.50;;;;;;;;5071820;28;11690;-75
2021/04/02 07:16:22;;;;;;;;;26.50;23.75;;;;;;;;5069302;28;12044;-74
2021/04/02 07:18:50;;;;;;;;;31.00;26.50;;;;;;;;5072994;28;11528;-74
2021/04/02 07:21:17;;;;;;;;;33.75;32.25;;;;;;;;5073394;28;11546;-78
2021/04/02 07:26:37;;;;;;;;;33.75;28.50;;;;;;;;5137549;27;13559;-70
2021/04/02 07:29:04;;;;;;;;;31.50;31.50;;;;;;;;5101004;27;11575;-69
2021/04/02 07:31:31;;;;;;;;;30.50;27.25;;;;;;;;5084429;28;11665;-74
2021/04/02 07:33:58;;;;;;;;;33.00;31.00;;;;;;;;5076622;28;11566;-73
2021/04/02 07:36:26;;;;;;;;;31.00;29.25;;;;;;;;5074123;28;11631;-72
2021/04/02 07:38:54;;;;;;;;;33.50;26.25;;;;;;;;5074817;28;11593;-73
2021/04/02 07:41:22;;;;;;;;;29.00;27.75;;;;;;;;5074548;28;11591;-72
2021/04/02 07:43:54;;;;;;;;;32.75;30.00;;;;;;;;5074219;28;11704;-73
2021/04/02 07:46:25;;;;;;;;;33.25;29.25;;;;;;;;5078383;28;12238;-73
2021/04/02 07:49:00;;;;;;;;;25.75;23.50;;;;;;;;5078230;28;11613;-73
2021/04/02 07:51:41;;;;;;;;;27.50;23.25;;;;;;;;5073719;28;11629;-73
2021/04/02 07:54:14;;;;;;;;;33.25;30.75;;;;;;;;5075576;28;11574;-73
2021/04/02 07:56:43;;;;;;;;;31.75;28.75;;;;;;;;5077597;28;11766;-74
2021/04/02 07:59:11;;;;;;;;;27.25;26.75;;;;;;;;5076892;28;11723;-74
2021/04/02 08:01:38;;;;;;;;;24.25;24.25;;;;;;;;5076767;28;10995;-73
2021/04/02 08:04:05;;;;;;;;;27.75;23.50;;;;;;;;5071483;28;11601;-72
2021/04/02 08:06:34;;;;;;;;;25.00;25.00;;;;;;;;5075072;28;11595;-73
2021/04/02 08:09:02;;;;;;;;;28.25;28.25;;;;;;;;5083863;28;11550;-73
2021/04/02 08:11:32;;;;;;;;;23.25;23.00;;;;;;;;5073827;28;12362;-73
2021/04/02 08:14:00;;;;;;;;;23.00;20.50;;;;;;;;5076579;28;11603;-74
2021/04/02 08:16:45;;;;;;;;;26.25;26.25;;;;;;;;5074426;28;11674;-73
2021/04/02 08:19:15;;;;;;;;;31.00;25.25;;;;;;;;5071318;28;11667;-73
2021/04/02 08:21:43;;;;;;;;;29.00;27.25;;;;;;;;5076318;28;11569;-75
2021/04/02 08:24:12;;;;;;;;;28.25;24.75;;;;;;;;5074563;28;11574;-73
2021/04/02 08:26:40;;;;;;;;;30.00;27.00;;;;;;;;5075845;28;11559;-74
2021/04/02 08:29:09;;;;;;;;;28.75;24.50;;;;;;;;5077542;28;11623;-73
2021/04/02 08:31:39;;;;;;;;;22.50;20.25;;;;;;;;5081514;27;11536;-72
2021/04/02 08:34:07;;;;;;;;;28.75;26.75;;;;;;;;5074514;28;11586;-73
2021/04/02 08:36:34;;;;;;;;;31.00;27.75;;;;;;;;5069782;28;11703;-74
2021/04/02 08:39:02;;;;;;;;;35.50;28.75;;;;;;;;5062259;28;11694;-75
2021/04/02 08:41:32;;;;;;;;;28.50;27.25;;;;;;;;5059659;28;11634;-73
2021/04/02 08:43:59;;;;;;;;;27.50;22.75;;;;;;;;5060334;28;11627;-72
2021/04/02 08:46:35;;;;;;;;;35.75;29.75;;;;;;;;5060278;28;11576;-73
2021/04/02 08:49:02;;;;;;;;;24.75;24.75;;;;;;;;5061440;28;11732;-73
2021/04/02 08:51:30;;;;;;;;;28.75;28.00;;;;;;;;5064410;28;11692;-74
2021/04/02 08:53:57;;;;;;;;;32.50;28.50;;;;;;;;5063216;28;11798;-72
2021/04/02 08:56:25;;;;;;;;;27.25;25.00;;;;;;;;5056490;28;11584;-74
2021/04/02 08:58:52;;;;;;;;;29.75;26.75;;;;;;;;5054920;28;11587;-75
2021/04/02 09:01:20;;;;;;;;;25.75;25.25;;;;;;;;5061095;28;11609;-75
2021/04/02 09:03:47;;;;;;;;;25.00;24.50;;;;;;;;5061804;28;11737;-75
2021/04/02 09:06:14;;;;;;;;;26.25;26.25;;;;;;;;5059666;28;11616;-75
2021/04/02 09:08:42;;;;;;;;;24.75;22.25;;;;;;;;5061453;28;11607;-75
2021/04/02 09:11:11;;;;;;;;;25.00;24.50;;;;;;;;5063309;28;11625;-75
2021/04/02 09:13:39;;;;;;;;;28.00;27.75;;;;;;;;5067771;28;11728;-75
2021/04/02 09:16:08;;;;;;;;;25.00;25.00;;;;;;;;5061851;28;11710;-75
2021/04/02 09:18:46;;;;;;;;;28.25;25.00;;;;;;;;5063147;28;11659;-75
2021/04/02 09:21:14;;;;;;;;;28.50;24.75;;;;;;;;5059586;28;11520;-74
2021/04/02 09:23:42;;;;;;;;;32.50;28.00;;;;;;;;5062429;28;11671;-73
2021/04/02 09:26:10;;;;;;;;;28.75;26.00;;;;;;;;5062494;28;11531;-77
2021/04/02 09:28:38;;;;;;;;;21.75;21.75;;;;;;;;5062988;28;11714;-75
2021/04/02 09:31:22;;;;;;;;;25.25;24.00;;;;;;;;5064021;28;11599;-75
2021/04/02 09:33:52;;;;;;;;;30.00;27.25;;;;;;;;5061126;28;11649;-75
2021/04/02 09:36:21;;;;;;;;;37.25;30.00;;;;;;;;5068114;28;11625;-76
2021/04/02 09:38:49;;;;;;;;;21.50;21.50;;;;;;;;5058349;28;11558;-77
2021/04/02 09:41:24;;;;;;;;;26.75;24.50;;;;;;;;5062112;28;12482;-78
2021/04/02 09:43:53;;;;;;;;;25.75;19.00;;;;;;;;5061735;28;11504;-74
2021/04/02 09:46:38;;;;;;;;;26.75;21.25;;;;;;;;5061330;28;11526;-76
2021/04/02 09:49:08;;;;;;;;;27.25;27.00;;;;;;;;5092622;28;11492;-76
2021/04/02 09:51:37;;;;;;;;;24.00;23.25;;;;;;;;5060337;28;12372;-75
2021/04/02 09:54:06;;;;;;;;;17.00;17.00;;;;;;;;5059474;28;12606;-78
2021/04/02 09:56:33;;;;;;;;;24.00;22.00;;;;;;;;5061557;28;11509;-75
2021/04/02 09:59:02;;;;;;;;;19.25;19.25;;;;;;;;5065913;28;11530;-74
2021/04/02 10:01:31;;;;;;;;;16.50;16.50;;;;;;;;5056898;28;11613;-74
2021/04/02 10:03:58;;;;;;;;;17.25;17.25;;;;;;;;5060824;28;11321;-75
2021/04/02 10:06:25;;;;;;;;;19.25;19.25;;;;;;;;5061488;28;11328;-76
2021/04/02 10:08:52;;;;;;;;;26.75;20.00;;;;;;;;5060595;28;11272;-77
2021/04/02 10:11:19;;;;;;;;;19.75;15.75;;;;;;;;5061458;28;11313;-77
2021/04/02 10:13:46;;;;;;;;;16.75;16.75;;;;;;;;5060850;28;11214;-75
2021/04/02 10:16:13;;;;;;;;;18.25;15.00;;;;;;;;5061583;28;11159;-76
2021/04/02 10:18:40;;;;;;;;;15.50;15.50;;;;;;;;5066572;28;10989;-75
2021/04/02 10:21:08;;;;;;;;;16.00;13.00;;;;;;;;5062391;28;10833;-75
2021/04/02 10:23:35;;;;;;;;;15.50;15.50;;;;;;;;5061939;28;10621;-75
2021/04/02 10:26:03;;;;;;;;;17.75;17.75;;;;;;;;5062240;28;10802;-73
2021/04/02 10:28:31;;;;;;;;;15.00;14.75;;;;;;;;5056389;28;11471;-73
2021/04/02 10:30:58;;;;;;;;;14.00;14.00;;;;;;;;5060041;28;10760;-74
2021/04/02 10:33:25;;;;;;;;;16.75;14.25;;;;;;;;5062815;28;10762;-74
2021/04/02 10:35:52;;;;;;;;;16.25;15.00;;;;;;;;5061582;28;11530;-75
2021/04/02 10:38:20;;;;;;;;;14.25;13.25;;;;;;;;5062657;28;10606;-75
2021/04/02 10:40:47;;;;;;;;;15.25;15.25;;;;;;;;5066979;28;10682;-76
2021/04/02 10:43:14;;;;;;;;;16.00;16.00;;;;;;;;5060881;28;10700;-73
2021/04/02 10:45:42;;;;;;;;;17.25;17.25;;;;;;;;5059877;28;10586;-73
2021/04/02 10:48:10;;;;;;;;;15.75;12.50;;;;;;;;5053132;28;10604;-73
2021/04/02 10:50:41;;;;;;;;;13.00;13.00;;;;;;;;5060120;28;10866;-73
2021/04/02 10:53:09;;;;;;;;;14.00;10.75;;;;;;;;5059529;28;10591;-73
2021/04/02 10:55:36;;;;;;;;;16.25;15.00;;;;;;;;5062500;28;10368;-73
2021/04/02 10:58:05;;;;;;;;;14.25;14.25;;;;;;;;5060203;28;10436;-73
2021/04/02 11:00:32;;;;;;;;;17.25;16.50;;;;;;;;5058321;28;10132;-74
2021/04/02 11:03:00;;;;;;;;;16.00;16.00;;;;;;;;5066180;28;10308;-74
2021/04/02 11:05:28;;;;;;;;;19.00;17.50;;;;;;;;5059243;28;10192;-74
2021/04/02 11:07:55;;;;;;;;;17.50;17.50;;;;;;;;5061175;28;11749;-75
2021/04/02 11:10:22;;;;;;;;;16.25;14.75;;;;;;;;5059480;28;10276;-74
2021/04/02 11:12:49;;;;;;;;;17.25;16.75;;;;;;;;5060207;28;10240;-75
2021/04/02 11:15:19;;;;;;;;;15.50;12.75;;;;;;;;5058404;28;10047;-74
2021/04/02 11:17:47;;;;;;;;;11.50;10.00;;;;;;;;5059401;28;10035;-76
2021/04/02 11:20:18;;;;;;;;;17.50;14.50;;;;;;;;5059960;28;9889;-73
2021/04/02 11:22:45;;;;;;;;;13.75;13.75;;;;;;;;5058460;28;10865;-74
2021/04/02 11:25:13;;;;;;;;;13.50;13.50;;;;;;;;5063441;28;10081;-73
2021/04/02 11:27:41;;;;;;;;;14.25;10.25;;;;;;;;5057445;28;10087;-75
2021/04/02 11:30:11;;;;;;;;;16.00;13.75;;;;;;;;5051509;28;10210;-72
2021/04/02 11:32:38;;;;;;;;;16.75;15.00;;;;;;;;5054650;28;10992;-73
2021/04/02 11:35:07;;;;;;;;;11.00;11.00;;;;;;;;5057641;28;11333;-75
2021/04/02 11:37:35;;;;;;;;;13.75;12.00;;;;;;;;5057234;28;10104;-75
2021/04/02 11:40:03;;;;;;;;;12.50;12.00;;;;;;;;5054961;28;9967;-72
2021/04/02 11:42:30;;;;;;;;;13.00;11.25;;;;;;;;5050810;28;10077;-72
2021/04/02 11:44:58;;;;;;;;;14.50;14.50;;;;;;;;5059899;28;10100;-73
2021/04/02 11:47:24;;;;;;;;;13.50;13.25;;;;;;;;5058932;28;9965;-71
2021/04/02 11:49:52;;;;;;;;;11.75;11.75;;;;;;;;5057054;28;9998;-74
2021/04/02 11:52:19;;;;;;;;;15.00;14.25;;;;;;;;5058361;28;9966;-72
2021/04/02 11:54:48;;;;;;;;;14.00;14.00;;;;;;;;5057082;28;9956;-74
2021/04/02 11:57:15;;;;;;;;;17.50;17.25;;;;;;;;5058219;28;10156;-73
2021/04/02 11:59:42;;;;;;;;;12.00;12.00;;;;;;;;5056984;28;10025;-71
2021/04/02 12:02:18;;;;;;;;;17.75;16.25;;;;;;;;5056210;28;9779;-72
2021/04/02 12:04:45;;;;;;;;;17.75;16.25;;;;;;;;5058849;28;9999;-72
2021/04/02 12:07:11;;;;;;;;;19.25;17.75;;;;;;;;5062109;28;9884;-73
2021/04/02 12:09:38;;;;;;;;;14.00;12.50;;;;;;;;5058789;28;9723;-73
2021/04/02 12:12:07;;;;;;;;;20.25;19.25;;;;;;;;5057218;28;9871;-73
2021/04/02 12:14:34;;;;;;;;;19.75;18.25;;;;;;;;5059339;28;9903;-74
2021/04/02 12:17:02;;;;;;;;;17.25;15.75;;;;;;;;5060499;28;9715;-74
2021/04/02 12:19:29;;;;;;;;;17.50;16.75;;;;;;;;5060088;28;9798;-72
2021/04/02 12:21:55;;;;;;;;;17.00;17.00;;;;;;;;5059459;28;10272;-73
2021/04/02 12:24:22;;;;;;;;;20.00;19.00;;;;;;;;5057994;28;9703;-73
2021/04/02 12:26:50;;;;;;;;;16.50;16.50;;;;;;;;5062436;28;10200;-76
2021/04/02 12:29:17;;;;;;;;;15.75;14.00;;;;;;;;5058892;28;9738;-75
2021/04/02 12:31:44;;;;;;;;;17.75;15.75;;;;;;;;5058056;28;9601;-75
2021/04/02 12:34:11;;;;;;;;;13.50;13.50;;;;;;;;5059533;28;9704;-76
2021/04/02 12:36:38;;;;;;;;;13.75;13.75;;;;;;;;5060032;28;9601;-75
2021/04/02 12:39:05;;;;;;;;;16.25;14.00;;;;;;;;5060738;28;10391;-75
2021/04/02 12:41:32;;;;;;;;;18.50;15.25;;;;;;;;5058603;28;9448;-73
2021/04/02 12:43:59;;;;;;;;;13.00;13.00;;;;;;;;5062722;28;9709;-75
2021/04/02 12:46:27;;;;;;;;;14.75;14.75;;;;;;;;5057323;28;9487;-74
2021/04/02 12:48:54;;;;;;;;;19.25;15.25;;;;;;;;5060739;28;9481;-74
2021/04/02 12:51:21;;;;;;;;;14.50;14.50;;;;;;;;5070670;28;9472;-75
2021/04/02 12:53:48;;;;;;;;;13.75;13.75;;;;;;;;5062156;28;9681;-75
2021/04/02 12:56:16;;;;;;;;;17.50;16.50;;;;;;;;5063189;28;9554;-74
2021/04/02 12:58:43;;;;;;;;;18.00;14.00;;;;;;;;5060774;28;9653;-73
2021/04/02 13:01:09;;;;;;;;;18.00;16.00;;;;;;;;5063331;28;9507;-76
2021/04/02 13:03:38;;;;;;;;;12.75;12.00;;;;;;;;5066034;28;9389;-74
2021/04/02 13:06:06;;;;;;;;;14.00;14.00;;;;;;;;5065620;28;9503;-76
2021/04/02 13:08:33;;;;;;;;;16.00;13.75;;;;;;;;5061704;28;9393;-76
2021/04/02 13:11:00;;;;;;;;;16.50;12.75;;;;;;;;5061524;28;10410;-74
2021/04/02 13:13:27;;;;;;;;;13.67;13.00;;;;;;;;5053179;28;9634;-75
2021/04/02 13:15:53;;;;;;;;;12.50;12.50;;;;;;;;5059879;28;9863;-75
2021/04/02 13:18:20;;;;;;;;;10.00;10.00;;;;;;;;5063596;28;9475;-73
2021/04/02 13:20:48;;;;;;;;;13.50;12.25;;;;;;;;5062492;28;9546;-75
2021/04/02 13:23:15;;;;;;;;;14.50;13.00;;;;;;;;5063331;28;9565;-73
2021/04/02 13:25:42;;;;;;;;;14.75;14.75;;;;;;;;5070563;28;9705;-72
2021/04/02 13:28:09;;;;;;;;;15.75;15.75;;;;;;;;5062775;28;9654;-72
2021/04/02 13:30:36;;;;;;;;;13.50;13.50;;;;;;;;5057989;28;9506;-74
2021/04/02 13:33:04;;;;;;;;;13.75;12.00;;;;;;;;5061589;28;9568;-72
2021/04/02 13:35:32;;;;;;;;;13.33;13.33;;;;;;;;5063598;28;10246;-73
2021/04/02 13:38:01;;;;;;;;;17.00;15.00;;;;;;;;5058739;28;9424;-73
2021/04/02 13:40:29;;;;;;;;;18.50;16.50;;;;;;;;5062410;28;9427;-73
2021/04/02 13:42:56;;;;;;;;;17.75;17.50;;;;;;;;5062026;28;9475;-73
2021/04/02 13:45:22;;;;;;;;;20.25;18.75;;;;;;;;5063012;28;9593;-73
2021/04/02 13:47:50;;;;;;;;;16.25;13.75;;;;;;;;5067218;28;9590;-74
2021/04/02 13:50:19;;;;;;;;;14.50;14.50;;;;;;;;5060909;28;9419;-72
2021/04/02 13:52:53;;;;;;;;;15.00;12.33;;;;;;;;5057437;28;9624;-74
2021/04/02 13:55:21;;;;;;;;;17.75;17.75;;;;;;;;5060061;28;9455;-74
2021/04/02 13:57:49;;;;;;;;;21.00;20.75;;;;;;;;5062465;28;9479;-75
2021/04/02 14:00:18;;;;;;;;;22.75;22.75;;;;;;;;5059197;28;10495;-74
2021/04/02 14:02:45;;;;;;;;;22.75;21.25;;;;;;;;5061459;28;9628;-75
2021/04/02 14:05:14;;;;;;;;;20.50;19.00;;;;;;;;5058386;28;9690;-73
2021/04/02 14:07:41;;;;;;;;;26.75;23.75;;;;;;;;5066030;28;9790;-73
2021/04/02 14:10:10;;;;;;;;;26.00;24.75;;;;;;;;5062581;28;10404;-75
2021/04/02 14:12:38;;;;;;;;;18.25;16.75;;;;;;;;5059004;28;9740;-76
2021/04/02 14:15:07;;;;;;;;;22.75;20.75;;;;;;;;5060541;28;9466;-74
2021/04/02 14:17:34;;;;;;;;;19.75;19.75;;;;;;;;5058684;28;10259;-74
2021/04/02 14:20:01;;;;;;;;;24.33;24.33;;;;;;;;5059027;28;9557;-74
2021/04/02 14:22:28;;;;;;;;;27.00;24.00;;;;;;;;5060775;28;9482;-75
2021/04/02 14:24:55;;;;;;;;;24.25;23.25;;;;;;;;5061827;28;9494;-75
2021/04/02 14:27:22;;;;;;;;;26.50;25.75;;;;;;;;5061006;28;9604;-73
2021/04/02 14:29:50;;;;;;;;;31.50;29.75;;;;;;;;5065118;28;10135;-72